Time;durP1;ratioP1;P1;durP2;ratioP2;P2;SDS_P1;SDS_P2;PMS_P1;PMS_P2;Temp;Humidity;BMP_temperature;BMP_pressure;BME280_temperature;BME280_humidity;BME280_pressure;Samples;Min_cycle;Max_cycle;Signal;HPM_P1;HPM_P2
2022/01/08 00:00:11;;;;;;;20.38;9.60;;;;;;;-0.19;100.00;100955.38;5038608;28;20087;-74
2022/01/08 00:02:37;;;;;;;20.63;9.32;;;;;;;-0.35;100.00;100950.53;5040723;28;20031;-74
2022/01/08 00:05:02;;;;;;;22.95;9.68;;;;;;;-0.35;100.00;100955.81;5042283;28;20024;-75
2022/01/08 00:07:27;;;;;;;17.42;8.75;;;;;;;-0.36;100.00;100954.09;5060061;28;20028;-74
2022/01/08 00:09:53;;;;;;;23.60;10.77;;;;;;;-0.41;100.00;100956.03;5057878;28;20080;-74
2022/01/08 00:12:19;;;;;;;23.45;12.40;;;;;;;-0.28;100.00;100953.00;5045136;28;20376;-74
2022/01/08 00:14:44;;;;;;;23.75;11.88;;;;;;;-0.27;100.00;100958.25;5057254;28;20028;-74
2022/01/08 00:17:09;;;;;;;19.35;10.48;;;;;;;-0.26;100.00;100961.75;5059346;28;20029;-75
2022/01/08 00:19:35;;;;;;;15.57;8.15;;;;;;;-0.27;100.00;100960.00;5041412;28;20059;-74
2022/01/08 00:22:00;;;;;;;26.02;11.98;;;;;;;-0.34;100.00;100962.84;5062251;28;20048;-74
2022/01/08 00:24:26;;;;;;;25.10;12.10;;;;;;;-0.29;100.00;100968.00;5053909;28;20035;-74
2022/01/08 00:26:51;;;;;;;25.05;12.20;;;;;;;-0.29;100.00;100962.72;5061093;28;20038;-74
2022/01/08 00:29:16;;;;;;;22.90;11.48;;;;;;;-0.33;100.00;100954.00;5044075;28;20035;-74
2022/01/08 00:31:42;;;;;;;25.88;13.52;;;;;;;-0.24;100.00;100962.56;5073449;28;20036;-74
2022/01/08 00:34:07;;;;;;;21.58;11.57;;;;;;;-0.27;100.00;100965.28;5049023;28;20060;-74
2022/01/08 00:36:33;;;;;;;22.92;13.25;;;;;;;-0.26;100.00;100959.94;5059507;28;20065;-74
2022/01/08 00:38:58;;;;;;;29.92;13.90;;;;;;;-0.19;100.00;100966.78;5043314;28;20123;-75
2022/01/08 00:41:24;;;;;;;26.40;15.23;;;;;;;-0.17;100.00;100962.31;5038018;28;20479;-75
2022/01/08 00:43:49;;;;;;;29.63;14.45;;;;;;;-0.07;100.00;100975.25;5067737;28;20320;-74
2022/01/08 00:46:14;;;;;;;25.08;14.20;;;;;;;-0.06;100.00;100967.25;5043703;28;20070;-74
2022/01/08 00:48:40;;;;;;;29.45;14.00;;;;;;;0.02;100.00;100974.94;5059035;28;20398;-75
2022/01/08 00:51:05;;;;;;;27.45;13.07;;;;;;;-0.17;100.00;100953.56;5060098;28;20487;-75
2022/01/08 00:53:30;;;;;;;30.10;14.88;;;;;;;-0.06;100.00;100974.31;5046146;28;20042;-75
2022/01/08 00:55:55;;;;;;;25.92;12.27;;;;;;;0.06;100.00;100996.84;5061298;28;20470;-75
2022/01/08 00:58:21;;;;;;;24.58;12.57;;;;;;;-0.03;100.00;100982.16;5046220;28;20119;-75
2022/01/08 01:00:46;;;;;;;30.60;13.52;;;;;;;-0.05;100.00;100981.34;5059237;28;20055;-75
2022/01/08 01:03:12;;;;;;;34.65;15.18;;;;;;;-0.04;100.00;100986.56;5043543;28;20078;-75
2022/01/08 01:05:37;;;;;;;21.15;13.25;;;;;;;-0.03;100.00;100992.72;5058907;28;20076;-75
2022/01/08 01:08:02;;;;;;;26.33;13.77;;;;;;;-0.04;100.00;100991.84;5044212;28;20112;-75
2022/01/08 01:10:28;;;;;;;32.72;16.70;;;;;;;0.04;100.00;100988.94;5055982;28;20509;-75
2022/01/08 01:12:53;;;;;;;22.55;12.40;;;;;;;-0.10;100.00;100986.75;5055208;28;20028;-75
2022/01/08 01:15:19;;;;;;;26.13;14.45;;;;;;;-0.04;100.00;100988.34;5053803;28;20077;-75
2022/01/08 01:17:45;;;;;;;29.35;14.25;;;;;;;-0.05;100.00;101000.66;5040880;28;20032;-75
2022/01/08 01:20:13;;;;;;;30.13;16.30;;;;;;;-0.07;100.00;101005.13;5046780;28;20048;-75
2022/01/08 01:23:04;;;;;;;29.45;14.18;;;;;;;-0.15;100.00;100986.03;5056679;28;20108;-75
2022/01/08 01:25:35;;;;;;;24.55;13.38;;;;;;;-0.19;100.00;100987.88;5044638;28;20115;-75
2022/01/08 01:49:25;;;;;;;18.77;10.32;;;;;;;-0.35;100.00;100987.47;5062144;28;20032;-75
2022/01/08 01:51:51;;;;;;;27.65;12.02;;;;;;;-0.34;100.00;100996.28;5044447;28;20047;-75
2022/01/08 01:54:16;;;;;;;20.42;11.88;;;;;;;-0.30;100.00;100997.94;5042179;28;20126;-74
2022/01/08 01:56:42;;;;;;;24.10;12.55;;;;;;;-0.32;100.00;100997.94;5046642;28;20367;-74
2022/01/08 01:59:07;;;;;;;24.27;12.68;;;;;;;-0.41;100.00;100992.97;5043117;28;20024;-75
2022/01/08 02:01:33;;;;;;;29.90;12.77;;;;;;;-0.42;100.00;100996.50;5043130;28;20514;-74
2022/01/08 02:03:58;;;;;;;23.42;12.18;;;;;;;-0.38;100.00;101003.41;5045153;28;20655;-75
2022/01/08 02:06:24;;;;;;;24.70;11.50;;;;;;;-0.37;100.00;101005.13;5060837;28;20028;-76
2022/01/08 02:08:49;;;;;;;21.10;12.55;;;;;;;-0.43;100.00;100988.63;5041146;28;20083;-75
2022/01/08 02:11:17;;;;;;;21.38;12.15;;;;;;;-0.58;100.00;100977.63;5041563;28;20489;-75
2022/01/08 02:13:43;;;;;;;19.70;10.88;;;;;;;-0.66;100.00;100979.63;5053209;28;20042;-75
2022/01/08 02:16:16;;;;;;;20.27;11.65;;;;;;;-0.69;100.00;100977.94;5044587;28;20434;-75
2022/01/08 02:18:42;;;;;;;18.20;10.43;;;;;;;-0.69;100.00;100985.84;5057484;28;20033;-74
2022/01/08 02:21:07;;;;;;;19.02;11.02;;;;;;;-0.73;100.00;100978.06;5041169;28;20324;-75
2022/01/08 02:23:33;;;;;;;19.08;9.68;;;;;;;-0.87;100.00;100970.53;5058654;28;20557;-75
2022/01/08 02:26:06;;;;;;;18.63;9.27;;;;;;;-0.98;100.00;100974.34;5041491;28;20121;-75
2022/01/08 02:28:32;;;;;;;16.15;9.48;;;;;;;-1.00;100.00;100991.97;5041602;28;20020;-75
2022/01/08 02:30:57;;;;;;;19.13;10.50;;;;;;;-1.07;100.00;100982.50;5041520;28;20032;-75
2022/01/08 02:33:24;;;;;;;16.10;10.32;;;;;;;-1.09;100.00;100992.22;5040798;28;20479;-75
2022/01/08 02:35:49;;;;;;;18.50;10.20;;;;;;;-1.07;100.00;100982.50;5056999;28;20078;-74
2022/01/08 02:38:14;;;;;;;20.70;9.65;;;;;;;-1.00;100.00;100986.72;5056320;28;20111;-75
2022/01/08 02:40:49;;;;;;;17.95;9.60;;;;;;;-0.97;100.00;100991.00;5039273;28;20029;-74
2022/01/08 02:43:14;;;;;;;24.13;12.63;;;;;;;-0.81;100.00;100994.09;5058232;28;20032;-74
2022/01/08 02:45:40;;;;;;;28.67;13.10;;;;;;;-0.73;100.00;100986.84;5060798;28;20487;-74
2022/01/08 02:48:05;;;;;;;19.80;11.35;;;;;;;-0.86;100.00;100991.59;5054436;28;20049;-74
2022/01/08 02:50:31;;;;;;;19.88;10.75;;;;;;;-0.91;100.00;100994.34;5056021;28;20063;-74
2022/01/08 02:52:56;;;;;;;23.70;12.20;;;;;;;-0.86;100.00;100998.63;5053886;28;20383;-75
2022/01/08 02:55:21;;;;;;;23.58;11.68;;;;;;;-0.86;100.00;101007.41;5053135;28;20141;-75
2022/01/08 02:57:48;;;;;;;22.52;11.55;;;;;;;-0.84;100.00;101013.50;5041066;28;20136;-74
2022/01/08 03:00:16;;;;;;;26.45;11.45;;;;;;;-0.94;100.00;101004.13;5038045;28;20028;-74
2022/01/08 03:02:46;;;;;;;22.52;10.90;;;;;;;-0.88;100.00;101013.63;5042747;28;20028;-74
2022/01/08 03:05:12;;;;;;;26.90;11.98;;;;;;;-0.87;100.00;101016.22;5042759;28;20039;-74
2022/01/08 03:07:38;;;;;;;23.20;11.30;;;;;;;-0.96;100.00;101012.09;5053890;28;20033;-74
2022/01/08 03:10:05;;;;;;;22.17;10.77;;;;;;;-0.95;100.00;101015.56;5057199;28;20060;-74
2022/01/08 03:12:30;;;;;;;28.35;12.30;;;;;;;-0.89;100.00;101012.78;5073953;28;20484;-74
2022/01/08 03:14:55;;;;;;;30.63;13.88;;;;;;;-0.84;100.00;101010.00;5041039;28;20156;-74
2022/01/08 03:17:21;;;;;;;34.40;16.17;;;;;;;-0.72;100.00;100995.59;5042029;28;20024;-74
2022/01/08 03:19:46;;;;;;;31.60;14.70;;;;;;;-0.73;100.00;100996.50;5056702;28;20037;-74
2022/01/08 03:22:12;;;;;;;35.55;15.23;;;;;;;-0.71;100.00;101008.75;5030360;28;20333;-74
2022/01/08 03:24:39;;;;;;;22.45;9.13;;;;;;;-0.65;100.00;101003.28;5033612;28;20070;-73
2022/01/08 03:27:05;;;;;;;35.30;17.63;;;;;;;-0.66;100.00;101017.38;5038830;28;20138;-75
2022/01/08 03:29:30;;;;;;;30.27;14.27;;;;;;;-0.67;100.00;101001.63;5057747;28;20029;-74
2022/01/08 03:31:55;;;;;;;34.83;15.65;;;;;;;-0.63;100.00;101001.47;5052383;28;20607;-74
2022/01/08 03:34:20;;;;;;;32.45;14.18;;;;;;;-0.58;100.00;101014.56;5057899;28;20153;-74
2022/01/08 03:36:46;;;;;;;28.63;13.75;;;;;;;-0.61;100.00;101007.56;5041124;28;20107;-74
2022/01/08 03:39:11;;;;;;;24.00;12.65;;;;;;;-0.58;100.00;101008.41;5056643;28;20028;-75
2022/01/08 03:41:37;;;;;;;30.65;14.95;;;;;;;-0.65;100.00;101011.22;5059825;28;20103;-75
2022/01/08 03:44:03;;;;;;;32.58;14.57;;;;;;;-0.58;100.00;101019.84;5057504;28;20043;-74
2022/01/08 03:46:33;;;;;;;30.15;14.30;;;;;;;-0.68;100.00;101026.25;5057659;28;20680;-74
2022/01/08 03:49:13;;;;;;;28.15;14.40;;;;;;;-0.62;100.00;101023.47;5039740;28;20036;-74
2022/01/08 03:51:40;;;;;;;29.48;14.43;;;;;;;-0.76;100.00;101029.97;5052354;28;20062;-74
2022/01/08 03:54:05;;;;;;;28.27;13.73;;;;;;;-0.89;100.00;101015.41;5061376;28;20135;-74
2022/01/08 03:56:31;;;;;;;23.23;12.27;;;;;;;-0.88;100.00;101029.44;5039655;28;20585;-74
2022/01/08 03:58:56;;;;;;;21.70;10.48;;;;;;;-0.86;100.00;101028.50;5053841;28;20426;-74
2022/01/08 04:01:21;;;;;;;21.15;10.40;;;;;;;-0.87;100.00;101039.97;5043913;28;20536;-74
2022/01/08 04:03:47;;;;;;;27.77;12.75;;;;;;;-0.97;100.00;101034.06;5035816;28;20542;-74
2022/01/08 04:06:12;;;;;;;32.08;14.35;;;;;;;-0.83;100.00;101038.97;5058951;28;20051;-74
2022/01/08 04:08:37;;;;;;;25.33;13.35;;;;;;;-0.87;100.00;101034.69;5043063;28;20039;-74
2022/01/08 04:11:03;;;;;;;33.97;14.38;;;;;;;-0.93;100.00;101034.84;5042950;28;20031;-75
2022/01/08 04:13:31;;;;;;;30.88;13.95;;;;;;;-0.97;100.00;101026.16;5043431;28;20047;-74
2022/01/08 04:16:06;;;;;;;25.80;12.90;;;;;;;-0.99;100.00;101021.81;5061789;28;20091;-74
2022/01/08 04:18:31;;;;;;;;;;;;;;;-1.00;100.00;101031.50;5042701;28;20138;-74
2022/01/08 04:23:40;;;;;;;34.10;14.93;;;;;;;-0.93;100.00;101025.16;5058602;28;20055;-74
2022/01/08 04:26:05;;;;;;;33.58;15.98;;;;;;;-0.87;100.00;101037.31;5063420;28;20036;-75
2022/01/08 04:28:31;;;;;;;30.02;14.32;;;;;;;-0.94;100.00;101044.53;5056988;28;20033;-74
2022/01/08 04:30:56;;;;;;;31.05;14.20;;;;;;;-1.03;100.00;101043.88;5046705;28;20029;-74
2022/01/08 04:33:21;;;;;;;35.08;16.77;;;;;;;-1.07;100.00;101053.66;5040393;28;20037;-74
2022/01/08 04:35:47;;;;;;;26.27;13.57;;;;;;;-1.14;100.00;101045.06;5041191;28;20497;-74
2022/01/08 04:38:12;;;;;;;27.67;12.98;;;;;;;-1.15;100.00;101056.50;5061678;28;20037;-74
2022/01/08 04:40:38;;;;;;;35.83;16.38;;;;;;;-1.00;100.00;101057.00;5045526;28;20032;-75
2022/01/08 04:43:03;;;;;;;25.33;13.02;;;;;;;-1.10;100.00;101048.47;5043097;28;20032;-75
2022/01/08 04:45:30;;;;;;;35.20;17.25;;;;;;;-0.98;100.00;101039.38;5061952;28;20401;-75
2022/01/08 04:47:56;;;;;;;39.05;16.20;;;;;;;-1.03;100.00;101051.78;5059670;28;20466;-75
2022/01/08 04:50:22;;;;;;;46.47;16.75;;;;;;;-0.94;100.00;101063.00;5062278;28;20478;-75
2022/01/08 04:52:47;;;;;;;35.53;15.18;;;;;;;-0.91;100.00;101040.94;5040095;28;20071;-75
2022/01/08 04:55:13;;;;;;;34.28;14.57;;;;;;;-0.95;100.00;101044.56;5062085;28;20118;-75
2022/01/08 04:57:38;;;;;;;34.90;13.32;;;;;;;-0.89;100.00;101059.34;5043092;28;20111;-74
2022/01/08 05:00:04;;;;;;;48.08;18.02;;;;;;;-0.82;100.00;101051.25;5056261;28;20028;-74
2022/01/08 05:02:29;;;;;;;23.25;12.82;;;;;;;-0.92;100.00;101057.66;5057120;28;20651;-74
2022/01/08 05:04:55;;;;;;;27.45;13.05;;;;;;;-0.93;100.00;101056.78;5057320;28;20045;-74
2022/01/08 05:07:20;;;;;;;28.67;13.68;;;;;;;-0.82;100.00;101047.72;5041916;28;20537;-75
2022/01/08 05:09:45;;;;;;;34.10;15.77;;;;;;;-0.82;100.00;101060.91;5057395;28;20604;-75
2022/01/08 05:12:11;;;;;;;35.05;13.95;;;;;;;-0.95;100.00;101053.34;5065557;28;20067;-75
2022/01/08 05:14:36;;;;;;;17.35;9.40;;;;;;;-0.84;100.00;101068.88;5056722;28;20504;-74
2022/01/08 05:17:02;;;;;;;29.58;13.98;;;;;;;-0.93;100.00;101055.94;5056766;28;20029;-74
2022/01/08 05:19:50;;;;;;;32.45;14.27;;;;;;;-0.84;100.00;101060.09;5045062;28;20025;-75
2022/01/08 05:22:28;;;;;;;34.72;17.20;;;;;;;-0.84;100.00;101066.25;5058541;28;20060;-74
2022/01/08 05:24:55;;;;;;;44.58;19.05;;;;;;;-0.71;100.00;101068.53;5056889;28;20505;-75
2022/01/08 05:27:20;;;;;;;32.95;15.80;;;;;;;-0.74;100.00;101058.06;5058846;28;20127;-75
2022/01/08 05:29:47;;;;;;;38.65;16.33;;;;;;;-0.82;100.00;101056.53;5059997;28;20111;-74
2022/01/08 05:32:19;;;;;;;18.23;9.20;;;;;;;-0.85;100.00;101061.88;5034332;28;20390;-74
2022/01/08 05:34:50;;;;;;;42.13;20.00;;;;;;;-0.72;100.00;101066.81;5042858;28;20630;-75
2022/01/08 05:37:16;;;;;;;27.80;12.95;;;;;;;-0.73;100.00;101075.63;5054288;28;20024;-74
2022/01/08 05:39:42;;;;;;;31.08;12.85;;;;;;;-0.88;100.00;101074.25;5052286;28;20036;-74
2022/01/08 05:42:08;;;;;;;30.75;14.90;;;;;;;-1.02;100.00;101064.94;5054917;28;20855;-75
2022/01/08 05:44:33;;;;;;;43.50;19.52;;;;;;;-0.80;100.00;101067.03;5047148;28;20056;-75
2022/01/08 05:46:59;;;;;;;41.00;20.25;;;;;;;-0.76;100.00;101072.16;5055731;28;20067;-75
2022/01/08 05:49:24;;;;;;;29.73;12.73;;;;;;;-0.81;100.00;101073.19;5038585;28;20391;-74
2022/01/08 05:51:49;;;;;;;37.42;16.55;;;;;;;-0.87;100.00;101058.41;5049522;28;20033;-75
2022/01/08 05:54:15;;;;;;;37.53;18.23;;;;;;;-0.79;100.00;101060.84;5037379;28;20292;-76
2022/01/08 05:56:40;;;;;;;27.88;12.95;;;;;;;-0.82;100.00;101079.38;5056346;28;20139;-75
2022/01/08 05:59:05;;;;;;;41.58;18.20;;;;;;;-0.87;100.00;101083.91;5059143;28;20041;-75
2022/01/08 06:01:34;;;;;;;41.90;18.35;;;;;;;-0.81;100.00;101082.00;5040507;28;20097;-76
2022/01/08 06:04:00;;;;;;;35.58;17.52;;;;;;;-0.74;100.00;101085.31;5035965;28;20207;-75
2022/01/08 06:06:26;;;;;;;39.10;18.85;;;;;;;-0.76;100.00;101082.69;5077021;28;20470;-75
2022/01/08 06:08:51;;;;;;;39.63;19.55;;;;;;;-0.79;100.00;101079.28;5056746;28;20074;-75
2022/01/08 06:11:16;;;;;;;31.02;15.35;;;;;;;-0.81;100.00;101083.75;5041385;28;20074;-75
2022/01/08 06:13:42;;;;;;;24.35;11.77;;;;;;;-0.92;100.00;101089.31;5038754;28;20037;-74
2022/01/08 06:16:07;;;;;;;46.15;21.95;;;;;;;-0.71;100.00;101094.91;5043508;28;20063;-75
2022/01/08 06:18:32;;;;;;;36.42;18.08;;;;;;;-0.73;100.00;101094.06;5042213;28;20474;-74
2022/01/08 06:20:59;;;;;;;39.38;19.20;;;;;;;-0.71;100.00;101100.19;5046588;28;20039;-75
2022/01/08 06:23:25;;;;;;;32.97;17.00;;;;;;;-0.72;100.00;101101.09;5043136;28;20493;-75
2022/01/08 06:25:51;;;;;;;33.17;15.80;;;;;;;-0.68;100.00;101111.53;5055507;28;20454;-75
2022/01/08 06:28:16;;;;;;;42.83;19.15;;;;;;;-0.56;100.00;101115.63;5055962;28;20079;-75
2022/01/08 06:30:41;;;;;;;39.70;20.38;;;;;;;-0.65;100.00;101095.59;5061409;28;20092;-75
2022/01/08 06:33:07;;;;;;;30.55;14.52;;;;;;;-0.74;100.00;101094.97;5058439;28;20110;-75
2022/01/08 06:35:32;;;;;;;32.28;15.23;;;;;;;-0.78;100.00;101108.25;5059672;28;20368;-75
2022/01/08 06:37:57;;;;;;;36.88;18.13;;;;;;;-0.83;100.00;101107.53;5059122;28;20032;-75
2022/01/08 06:40:23;;;;;;;26.88;14.88;;;;;;;-0.79;100.00;101089.84;5060090;28;20103;-74
2022/01/08 06:42:48;;;;;;;23.55;13.20;;;;;;;-0.83;100.00;101104.88;5059755;28;20052;-75
2022/01/08 06:45:13;;;;;;;22.85;12.77;;;;;;;-0.84;100.00;101105.78;5044071;28;20031;-75
2022/01/08 06:47:39;;;;;;;27.25;14.23;;;;;;;-0.81;100.00;101113.63;5063326;28;20031;-75
2022/01/08 06:50:05;;;;;;;32.38;14.35;;;;;;;-0.90;100.00;101103.31;5042357;28;20477;-75
2022/01/08 06:52:32;;;;;;;24.27;14.25;;;;;;;-0.89;100.00;101098.88;5041115;28;20036;-74
2022/01/08 06:54:57;;;;;;;43.60;20.55;;;;;;;-0.72;100.00;101104.59;5058343;28;20055;-75
2022/01/08 06:57:23;;;;;;;37.67;16.63;;;;;;;-0.79;100.00;101079.28;5038467;28;20387;-74
2022/01/08 06:59:48;;;;;;;45.72;21.65;;;;;;;-0.52;100.00;101101.41;5038260;28;20078;-75
2022/01/08 07:02:13;;;;;;;47.15;20.95;;;;;;;-0.51;100.00;101095.22;5044250;28;20588;-74
2022/01/08 07:04:39;;;;;;;34.92;18.55;;;;;;;-0.57;100.00;101102.44;5040234;28;20351;-74
2022/01/08 07:07:04;;;;;;;36.20;18.42;;;;;;;-0.52;100.00;101096.13;5063574;28;20036;-74
2022/01/08 07:09:29;;;;;;;33.22;17.75;;;;;;;-0.54;100.00;101095.34;5048380;28;20032;-74
2022/01/08 07:11:55;;;;;;;34.67;16.83;;;;;;;-0.64;100.00;101101.75;5053888;28;20029;-74
2022/01/08 07:14:20;;;;;;;43.60;21.00;;;;;;;-0.63;100.00;101091.16;5058153;28;20090;-74
2022/01/08 07:16:47;;;;;;;30.00;16.38;;;;;;;-0.64;100.00;101099.13;5038902;28;20394;-74
2022/01/08 07:19:12;;;;;;;26.13;14.73;;;;;;;-0.55;100.00;101106.78;5057618;28;20028;-75
2022/01/08 07:21:37;;;;;;;44.38;19.77;;;;;;;-0.62;100.00;101086.75;5057618;28;20036;-74
2022/01/08 07:24:03;;;;;;;54.67;22.42;;;;;;;-0.42;100.00;101095.88;5057325;28;20024;-75
2022/01/08 07:26:28;;;;;;;46.63;21.77;;;;;;;-0.43;100.00;101096.78;5056755;28;20060;-75
2022/01/08 07:28:53;;;;;;;41.47;17.80;;;;;;;-0.40;100.00;101100.22;5056143;28;20036;-75
2022/01/08 07:31:19;;;;;;;30.15;14.90;;;;;;;-0.52;100.00;101096.13;5059896;28;20032;-74
2022/01/08 07:33:49;;;;;;;39.60;19.70;;;;;;;-0.37;100.00;101094.00;5041924;28;20064;-75
2022/01/08 07:36:14;;;;;;;46.10;20.80;;;;;;;-0.31;100.00;101094.69;5041712;28;20032;-75
2022/01/08 07:38:40;;;;;;;34.47;16.75;;;;;;;-0.42;100.00;101088.84;5054472;28;20439;-74
2022/01/08 07:41:05;;;;;;;33.08;14.25;;;;;;;-0.29;100.00;101091.13;5050371;28;20059;-74
2022/01/08 07:43:30;;;;;;;41.75;22.05;;;;;;;-0.26;100.00;101093.69;5060192;28;20075;-75
2022/01/08 07:45:56;;;;;;;45.67;20.10;;;;;;;-0.32;100.00;101092.94;5046709;28;20056;-74
2022/01/08 07:48:22;;;;;;;52.63;28.55;;;;;;;-0.16;100.00;101095.16;5064261;28;20052;-75
2022/01/08 07:50:47;;;;;;;43.03;17.92;;;;;;;-0.21;100.00;101100.56;5062232;28;20028;-75
2022/01/08 07:53:12;;;;;;;28.67;14.02;;;;;;;-0.44;100.00;101089.78;5039182;28;20202;-75
2022/01/08 07:55:37;;;;;;;39.08;20.33;;;;;;;-0.20;100.00;101085.59;5057042;28;20059;-74
2022/01/08 07:58:03;;;;;;;41.08;19.17;;;;;;;-0.05;100.00;101082.50;5059143;28;20032;-76
2022/01/08 08:00:28;;;;;;;27.48;13.52;;;;;;;-0.21;100.00;101090.00;5059194;28;20051;-74
2022/01/08 08:02:53;;;;;;;39.40;20.10;;;;;;;-0.28;100.00;101096.38;5058186;28;20078;-72
2022/01/08 08:05:19;;;;;;;42.65;19.52;;;;;;;-0.18;100.00;101084.63;5044674;28;20154;-74
2022/01/08 08:07:44;;;;;;;41.00;18.13;;;;;;;-0.11;100.00;101080.03;5061664;28;20513;-74
2022/01/08 08:10:12;;;;;;;40.45;19.40;;;;;;;0.07;100.00;101088.34;5044631;28;20037;-74
2022/01/08 08:12:39;;;;;;;47.30;21.23;;;;;;;0.06;100.00;101079.53;5058784;28;20051;-73
2022/01/08 08:15:06;;;;;;;52.03;24.17;;;;;;;-0.02;100.00;101071.84;5060521;28;20522;-75
2022/01/08 08:17:33;;;;;;;25.48;13.68;;;;;;;0.04;100.00;101078.72;5058740;28;20182;-74
2022/01/08 08:19:58;;;;;;;48.67;24.48;;;;;;;0.05;100.00;101066.41;5062142;28;20123;-75
2022/01/08 08:22:23;;;;;;;36.83;16.75;;;;;;;-0.18;100.00;101074.06;5055947;28;20143;-74
2022/01/08 08:24:48;;;;;;;40.67;21.23;;;;;;;-0.03;100.00;101071.91;5060779;28;20036;-75
2022/01/08 08:27:14;;;;;;;38.72;17.23;;;;;;;-0.21;100.00;101073.31;5045017;28;20028;-77
2022/01/08 08:29:40;;;;;;;34.50;17.52;;;;;;;0.05;100.00;101083.09;5059584;28;20036;-73
2022/01/08 08:32:06;;;;;;;33.63;17.08;;;;;;;-0.24;100.00;101057.56;5043255;28;20059;-76
2022/01/08 08:34:32;;;;;;;53.25;28.00;;;;;;;0.17;100.00;101073.06;5059067;28;20032;-72
2022/01/08 08:36:57;;;;;;;52.28;30.33;;;;;;;0.40;100.00;101064.41;5057082;28;20043;-71
2022/01/08 08:39:23;;;;;;;52.55;29.60;;;;;;;0.29;100.00;101048.91;5051803;28;20149;-74
2022/01/08 08:41:49;;;;;;;44.08;21.13;;;;;;;0.20;100.00;101049.22;5040851;28;20558;-73
2022/01/08 08:44:14;;;;;;;49.72;23.77;;;;;;;0.51;100.00;101042.97;5040024;28;20028;-75
2022/01/08 08:46:39;;;;;;;42.85;17.85;;;;;;;0.16;100.00;101055.50;5061059;28;20032;-72
2022/01/08 08:49:05;;;;;;;35.95;16.85;;;;;;;0.23;100.00;101043.84;5045318;28;20082;-74
2022/01/08 08:51:30;;;;;;;40.67;19.42;;;;;;;0.19;100.00;101044.84;5059105;28;20028;-74
2022/01/08 08:53:55;;;;;;;39.88;19.73;;;;;;;0.11;100.00;101038.03;5060724;28;20048;-74
2022/01/08 08:56:21;;;;;;;27.15;12.40;;;;;;;-0.11;100.00;101051.00;5041884;28;20040;-72
2022/01/08 08:58:47;;;;;;;36.55;12.68;;;;;;;0.08;100.00;101050.47;5044522;28;20028;-74
2022/01/08 09:01:12;;;;;;;45.50;23.40;;;;;;;0.21;100.00;101037.75;5060842;28;20034;-74
2022/01/08 09:03:37;;;;;;;53.15;24.17;;;;;;;0.65;100.00;101043.34;5058424;28;20060;-74
2022/01/08 09:06:03;;;;;;;35.85;16.75;;;;;;;0.35;100.00;101042.59;5060806;28;20086;-73
2022/01/08 09:08:28;;;;;;;48.05;20.27;;;;;;;0.18;100.00;101033.41;5063754;28;20470;-73
2022/01/08 09:10:53;;;;;;;43.45;18.67;;;;;;;0.21;100.00;101033.31;5061255;28;20097;-74
2022/01/08 09:13:20;;;;;;;37.65;18.95;;;;;;;0.46;100.00;101036.97;5061146;28;20035;-74
2022/01/08 09:15:46;;;;;;;36.28;16.55;;;;;;;0.19;100.00;101044.84;5062367;28;20025;-74
2022/01/08 09:18:11;;;;;;;41.03;18.27;;;;;;;0.21;100.00;101037.75;5043915;28;20055;-74
2022/01/08 09:20:37;;;;;;;26.85;12.50;;;;;;;0.29;100.00;101039.22;5045968;28;20017;-73
2022/01/08 09:23:03;;;;;;;48.53;22.02;;;;;;;0.29;100.00;101028.66;5043678;28;20043;-74
2022/01/08 09:25:28;;;;;;;44.58;24.67;;;;;;;0.77;100.00;101036.78;5060268;28;20553;-73
2022/01/08 09:27:54;;;;;;;41.92;18.23;;;;;;;0.53;100.00;101035.84;5043049;28;20598;-74
2022/01/08 09:30:19;;;;;;;45.42;20.98;;;;;;;0.21;100.00;101011.34;5058232;28;20530;-72
2022/01/08 09:32:44;;;;;;;43.00;17.17;;;;;;;0.18;100.00;101048.41;5062918;28;20371;-73
2022/01/08 09:35:14;;;;;;;40.70;17.38;;;;;;;0.26;100.00;101033.19;5044958;28;20024;-74
2022/01/08 09:37:39;;;;;;;51.88;18.77;;;;;;;0.54;100.00;101038.44;5062064;28;20334;-74
2022/01/08 09:40:09;;;;;;;44.03;19.05;;;;;;;0.38;100.00;101040.69;5052658;28;20706;-72
2022/01/08 09:42:34;;;;;;;44.38;18.52;;;;;;;0.39;100.00;101023.09;5058317;28;20033;-74
2022/01/08 09:45:00;;;;;;;39.53;17.48;;;;;;;0.39;100.00;101015.16;5057468;28;20040;-73
2022/01/08 09:47:25;;;;;;;52.10;26.27;;;;;;;0.60;100.00;101013.56;5059982;28;20031;-72
2022/01/08 09:49:50;;;;;;;51.72;25.73;;;;;;;0.88;100.00;101021.44;5062852;28;20028;-75
2022/01/08 09:52:16;;;;;;;53.17;25.50;;;;;;;0.88;100.00;100996.78;5047916;28;20028;-74
2022/01/08 09:54:41;;;;;;;56.97;31.40;;;;;;;1.04;100.00;101003.28;5059853;28;20604;-72
2022/01/08 09:57:06;;;;;;;54.55;25.20;;;;;;;1.13;100.00;100999.44;5064311;28;20083;-73
2022/01/08 09:59:32;;;;;;;55.60;24.80;;;;;;;1.14;100.00;100990.56;5060483;28;20386;-75
2022/01/08 10:01:59;;;;;;;40.83;18.27;;;;;;;0.71;100.00;100986.78;5062148;28;20024;-72
2022/01/08 10:04:26;;;;;;;47.53;22.27;;;;;;;0.71;100.00;100949.78;5056744;28;20056;-74
2022/01/08 10:06:56;;;;;;;37.42;16.63;;;;;;;0.99;100.00;100976.13;5057641;28;20107;-73
2022/01/08 10:09:22;;;;;;;55.53;26.27;;;;;;;1.04;100.00;100970.66;5054425;28;20057;-74
2022/01/08 10:11:49;;;;;;;39.75;18.23;;;;;;;1.18;100.00;100957.81;5058165;28;20175;-73
2022/01/08 10:14:27;;;;;;;49.25;24.17;;;;;;;1.13;100.00;100933.31;5058744;28;20051;-75
2022/01/08 10:19:37;;;;;;;51.80;25.90;;;;;;;1.35;100.00;100945.72;5059948;28;20044;-72
2022/01/08 10:22:14;;;;;;;51.80;28.55;;;;;;;1.38;100.00;100924.44;5061162;28;20028;-75
2022/01/08 10:24:39;;;;;;;56.40;26.90;;;;;;;1.27;100.00;100897.53;5060641;28;20540;-74
2022/01/08 10:27:06;;;;;;;51.58;24.65;;;;;;;1.42;100.00;100912.84;5057694;28;20032;-74
2022/01/08 10:29:32;;;;;;;53.63;25.48;;;;;;;1.45;100.00;100918.00;5060770;28;20595;-74
2022/01/08 10:31:59;;;;;;;54.08;29.65;;;;;;;1.62;100.00;100900.59;5061535;28;20063;-75
2022/01/08 10:34:29;;;;;;;54.30;25.23;;;;;;;1.65;100.00;100903.13;5063824;28;20057;-74
2022/01/08 10:36:54;;;;;;;50.42;22.95;;;;;;;1.24;100.00;100906.47;5057304;28;20029;-72
2022/01/08 10:39:32;;;;;;;54.53;24.17;;;;;;;1.38;100.00;100886.53;5063258;28;20032;-74
2022/01/08 10:41:59;;;;;;;74.07;34.95;;;;;;;1.67;100.00;100874.81;5058587;28;20304;-76
2022/01/08 10:44:30;;;;;;;46.50;18.58;;;;;;;1.29;100.00;100878.06;5058414;28;20047;-76
2022/01/08 10:47:01;;;;;;;62.58;29.23;;;;;;;1.63;100.00;100868.78;5055857;28;20025;-73
2022/01/08 10:49:34;;;;;;;52.05;18.75;;;;;;;1.12;100.00;100867.22;5058241;28;20020;-74
2022/01/08 10:52:03;;;;;;;51.40;23.08;;;;;;;1.49;100.00;100857.88;5058463;28;20119;-72
2022/01/08 10:54:30;;;;;;;49.92;21.23;;;;;;;1.53;100.00;100856.84;5061676;28;20577;-72
2022/01/08 10:57:01;;;;;;;44.60;19.23;;;;;;;1.65;100.00;100829.88;5076981;28;20032;-74
2022/01/08 10:59:29;;;;;;;51.22;27.30;;;;;;;1.86;100.00;100832.53;5061548;28;20722;-76
2022/01/08 11:02:02;;;;;;;51.75;26.52;;;;;;;1.83;100.00;100834.47;5058398;28;20147;-73
2022/01/08 11:04:51;;;;;;;53.67;31.60;;;;;;;2.34;100.00;100824.41;5062020;28;20025;-73
2022/01/08 11:07:17;;;;;;;48.60;25.73;;;;;;;2.19;100.00;100828.56;5058055;28;20390;-70
2022/01/08 11:09:45;;;;;;;49.65;25.38;;;;;;;2.38;100.00;100816.22;5061611;28;20028;-71
2022/01/08 11:12:18;;;;;;;47.28;25.67;;;;;;;2.14;100.00;100801.41;5054311;28;20025;-74
2022/01/08 11:17:25;;;;;;;43.00;20.58;;;;;;;2.34;100.00;100806.69;5055680;28;20363;-75
2022/01/08 11:19:53;;;;;;;46.42;19.15;;;;;;;2.20;100.00;100811.75;5073178;28;20073;-76
2022/01/08 11:22:23;;;;;;;47.53;20.40;;;;;;;2.39;100.00;100791.44;5058853;28;20024;-73
2022/01/08 11:24:52;;;;;;;34.33;16.10;;;;;;;2.22;100.00;100799.28;5064486;28;20523;-72
2022/01/08 11:27:22;;;;;;;43.85;21.67;;;;;;;2.43;100.00;100778.91;5062590;28;20458;-74
2022/01/08 11:30:05;;;;;;;43.58;21.23;;;;;;;2.50;100.00;100796.28;5061849;28;20435;-72